Time;durP1;ratioP1;P1;durP2;ratioP2;P2;SDS_P1;SDS_P2;PMS_P1;PMS_P2;Temp;Humidity;BMP_temperature;BMP_pressure;BME280_temperature;BME280_humidity;BME280_pressure;Samples;Min_cycle;Max_cycle;Signal;HPM_P1;HPM_P2
2023/03/16 00:00:14;;;;;;;0.50;0.45;;;-3.30;91.00;;;;;;5028204;28;20518;-68
2023/03/16 00:02:42;;;;;;;0.60;0.60;;;-3.40;99.90;;;;;;5029964;28;20431;-69
2023/03/16 00:05:11;;;;;;;0.80;0.40;;;-3.40;99.90;;;;;;5027943;28;20431;-69
2023/03/16 00:07:38;;;;;;;0.40;0.40;;;-3.30;99.90;;;;;;5030370;28;20426;-69
2023/03/16 00:10:05;;;;;;;0.80;0.60;;;-3.30;99.90;;;;;;5030144;28;20526;-68
2023/03/16 00:12:33;;;;;;;0.30;0.30;;;-3.30;1.00;;;;;;5029613;28;20466;-69
2023/03/16 00:15:01;;;;;;;0.80;0.80;;;-3.30;1.00;;;;;;5028966;28;20463;-68
2023/03/16 00:17:27;;;;;;;0.55;0.55;;;-3.30;1.00;;;;;;5030082;28;20465;-68
2023/03/16 00:20:19;;;;;;;1.48;0.60;;;-3.30;1.00;;;;;;5028066;28;20525;-69
2023/03/16 00:22:46;;;;;;;0.45;0.45;;;-3.40;1.00;;;;;;5030852;28;20443;-68
2023/03/16 00:25:13;;;;;;;0.50;0.50;;;-3.40;1.00;;;;;;5030394;28;20473;-68
2023/03/16 00:27:40;;;;;;;0.70;0.70;;;-3.40;1.00;;;;;;5029981;28;20804;-68
2023/03/16 00:30:08;;;;;;;0.30;0.30;;;-3.40;1.00;;;;;;5028891;28;20520;-68
2023/03/16 00:32:36;;;;;;;1.63;0.98;;;-3.40;1.00;;;;;;5030727;28;20584;-69
2023/03/16 00:35:04;;;;;;;0.50;0.50;;;-3.40;95.80;;;;;;5027824;28;20829;-68
2023/03/16 00:37:36;;;;;;;0.43;0.43;;;-3.40;84.80;;;;;;5031162;28;20517;-69
2023/03/16 00:40:06;;;;;;;1.00;0.90;;;-3.40;99.90;;;;;;5030492;28;20510;-69
2023/03/16 00:42:33;;;;;;;0.68;0.68;;;-3.40;99.90;;;;;;5028344;28;20434;-68
2023/03/16 00:45:01;;;;;;;0.40;0.40;;;-3.40;99.90;;;;;;5028766;28;20481;-69
2023/03/16 00:47:31;;;;;;;0.30;0.30;;;-3.40;99.90;;;;;;5030045;28;20435;-69
2023/03/16 00:50:02;;;;;;;0.30;0.30;;;-3.40;1.00;;;;;;5030722;28;20504;-69
2023/03/16 00:52:29;;;;;;;0.60;0.60;;;-3.30;1.00;;;;;;5028554;28;20665;-69
2023/03/16 00:54:58;;;;;;;0.40;0.40;;;-3.30;1.00;;;;;;5029865;28;20426;-69
2023/03/16 00:57:28;;;;;;;0.55;0.55;;;-3.30;1.00;;;;;;5029500;28;20865;-69
2023/03/16 00:59:55;;;;;;;0.77;0.77;;;-3.30;1.00;;;;;;5028409;28;20439;-68
2023/03/16 01:02:23;;;;;;;0.43;0.43;;;-3.30;1.00;;;;;;5029848;28;20510;-69
2023/03/16 01:04:53;;;;;;;0.20;0.20;;;-3.30;1.00;;;;;;5027161;28;20739;-69
2023/03/16 01:07:21;;;;;;;0.70;0.68;;;-3.30;1.00;;;;;;5030031;28;20776;-68
2023/03/16 01:09:47;;;;;;;0.40;0.40;;;-3.40;1.00;;;;;;5028618;28;20433;-69
2023/03/16 01:12:17;;;;;;;4.73;0.60;;;-3.40;1.00;;;;;;5029264;28;20442;-69
2023/03/16 01:14:47;;;;;;;1.40;0.43;;;-3.50;1.00;;;;;;5029469;28;20435;-69
2023/03/16 01:17:16;;;;;;;0.38;0.38;;;-3.50;1.00;;;;;;5029743;28;20442;-69
2023/03/16 01:19:44;;;;;;;1.50;0.40;;;-3.50;1.00;;;;;;5029678;28;20997;-69
2023/03/16 01:22:11;;;;;;;0.68;0.68;;;-3.40;1.00;;;;;;5028561;28;20435;-69
2023/03/16 01:24:39;;;;;;;2.60;0.70;;;-3.40;1.00;;;;;;5027991;28;20543;-69
2023/03/16 01:27:07;;;;;;;0.93;0.63;;;-3.40;1.00;;;;;;5029655;28;20430;-69
2023/03/16 01:29:36;;;;;;;0.45;0.45;;;-3.30;99.90;;;;;;5029794;28;20431;-69
2023/03/16 01:32:04;;;;;;;0.40;0.30;;;-3.10;99.90;;;;;;5029546;28;20438;-69
2023/03/16 01:34:34;;;;;;;0.60;0.30;;;-3.00;99.90;;;;;;5028198;28;20435;-69
2023/03/16 01:37:01;;;;;;;0.60;0.50;;;-3.00;99.90;;;;;;5019031;28;20530;-69
2023/03/16 01:39:28;;;;;;;0.65;0.65;;;-3.10;99.90;;;;;;5029390;28;20435;-69
2023/03/16 01:41:55;;;;;;;1.10;0.40;;;-3.20;10.10;;;;;;5028505;28;20453;-69
2023/03/16 01:44:29;;;;;;;0.40;0.40;;;-3.30;1.00;;;;;;5027422;28;21125;-69
2023/03/16 01:46:56;;;;;;;0.50;0.50;;;-3.50;1.00;;;;;;5029037;28;20802;-69
2023/03/16 01:49:31;;;;;;;0.50;0.50;;;-3.60;99.90;;;;;;5029420;28;20458;-69
2023/03/16 01:52:12;;;;;;;1.00;0.70;;;-3.70;99.90;;;;;;5027985;28;20876;-69
2023/03/16 01:54:49;;;;;;;0.70;0.70;;;-3.80;1.00;;;;;;5029045;28;20966;-69
2023/03/16 01:57:21;;;;;;;0.30;0.30;;;-3.90;1.00;;;;;;5029336;28;20521;-69
2023/03/16 01:59:56;;;;;;;0.50;0.50;;;-4.00;54.50;;;;;;5027046;28;20438;-69
2023/03/16 02:02:28;;;;;;;0.75;0.75;;;-4.00;99.90;;;;;;5029532;28;20431;-69
2023/03/16 02:05:16;;;;;;;0.20;0.20;;;-3.90;99.90;;;;;;5027278;28;20427;-69
2023/03/16 02:07:47;;;;;;;0.38;0.38;;;-3.90;99.90;;;;;;5009412;28;20437;-69
2023/03/16 02:10:17;;;;;;;0.28;0.28;;;-3.90;1.00;;;;;;5010759;28;20921;-69
2023/03/16 02:12:44;;;;;;;0.30;0.30;;;-3.80;1.00;;;;;;5027629;28;20509;-69
2023/03/16 02:15:13;;;;;;;0.30;0.30;;;-3.70;1.00;;;;;;5032970;28;20430;-69
2023/03/16 02:17:45;;;;;;;0.30;0.30;;;-3.70;1.00;;;;;;5033550;28;20430;-69
2023/03/16 02:20:41;;;;;;;0.70;0.70;;;-3.60;1.00;;;;;;5033156;28;20438;-69
2023/03/16 02:23:17;;;;;;;0.40;0.40;;;-3.60;1.00;;;;;;5032685;28;20435;-69
2023/03/16 02:25:50;;;;;;;0.40;0.40;;;-3.50;99.90;;;;;;5029659;28;21087;-69
2023/03/16 02:28:33;;;;;;;0.50;0.50;;;-3.20;99.90;;;;;;5013291;28;21001;-69
2023/03/16 02:31:01;;;;;;;1.00;0.70;;;-3.20;99.90;;;;;;5012850;28;21029;-69
2023/03/16 02:33:28;;;;;;;0.20;0.20;;;-3.20;99.90;;;;;;5027188;28;20434;-69
2023/03/16 02:35:55;;;;;;;0.30;0.30;;;-3.10;99.90;;;;;;5026944;28;20426;-69
2023/03/16 02:38:22;;;;;;;0.40;0.40;;;-3.10;99.90;;;;;;5031569;28;20430;-69
2023/03/16 02:41:12;;;;;;;0.77;0.77;;;-3.10;99.90;;;;;;5032649;28;20502;-69
2023/03/16 02:43:43;;;;;;;0.52;0.52;;;-3.10;99.90;;;;;;5031163;28;20466;-70
2023/03/16 02:46:10;;;;;;;0.57;0.57;;;-3.20;91.90;;;;;;5012544;28;20471;-69
2023/03/16 02:48:42;;;;;;;1.00;0.50;;;-3.30;99.90;;;;;;5011971;28;20464;-69
2023/03/16 02:51:10;;;;;;;0.63;0.63;;;-3.30;99.90;;;;;;5024325;28;20435;-69
2023/03/16 02:53:37;;;;;;;0.28;0.28;;;-3.20;99.90;;;;;;5032585;28;20431;-69
2023/03/16 02:56:09;;;;;;;0.30;0.30;;;-3.30;99.90;;;;;;5032138;28;20431;-69
2023/03/16 02:58:36;;;;;;;0.80;0.80;;;-3.30;99.90;;;;;;5030991;28;21020;-69
2023/03/16 03:01:03;;;;;;;0.35;0.35;;;-3.30;99.90;;;;;;5030965;28;20434;-70
2023/03/16 03:03:33;;;;;;;1.40;0.60;;;-3.30;99.90;;;;;;5032430;28;20798;-69
2023/03/16 03:06:03;;;;;;;0.60;0.60;;;-3.30;99.90;;;;;;5029526;28;20431;-69
2023/03/16 03:08:31;;;;;;;2.50;1.00;;;-3.20;99.90;;;;;;5032304;28;20427;-70
2023/03/16 03:10:58;;;;;;;0.80;0.70;;;-3.10;1.00;;;;;;5032120;28;20777;-70
2023/03/16 03:13:25;;;;;;;0.57;0.57;;;-3.10;1.00;;;;;;5032159;28;20522;-70
2023/03/16 03:15:54;;;;;;;1.50;1.10;;;-3.00;1.00;;;;;;5030016;28;20430;-69
2023/03/16 03:18:20;;;;;;;1.38;0.68;;;-3.00;1.00;;;;;;5031806;28;20886;-70
2023/03/16 03:20:47;;;;;;;0.50;0.50;;;-2.90;1.00;;;;;;5031255;28;21153;-69
2023/03/16 03:23:16;;;;;;;0.43;0.43;;;-2.90;1.00;;;;;;5031690;28;20493;-70
2023/03/16 03:25:44;;;;;;;6.00;1.10;;;-2.90;1.00;;;;;;5031553;28;20433;-70
2023/03/16 03:28:10;;;;;;;0.40;0.40;;;-2.90;1.00;;;;;;5032166;28;20426;-69
2023/03/16 03:30:40;;;;;;;1.45;0.60;;;-2.90;1.00;;;;;;5031727;28;20438;-70
2023/03/16 03:33:07;;;;;;;0.60;0.60;;;-2.90;1.00;;;;;;5029974;28;20973;-70
2023/03/16 03:35:34;;;;;;;0.60;0.60;;;-2.90;99.90;;;;;;5030892;28;20430;-70
2023/03/16 03:38:01;;;;;;;0.70;0.70;;;-2.90;99.90;;;;;;5030972;28;20431;-70
2023/03/16 03:40:27;;;;;;;0.90;0.90;;;-2.90;99.90;;;;;;5031124;28;20517;-70
2023/03/16 03:42:55;;;;;;;1.55;0.93;;;-2.90;1.00;;;;;;5031559;28;20514;-70
2023/03/16 03:45:21;;;;;;;0.50;0.47;;;-3.00;99.90;;;;;;5028514;28;20433;-70
2023/03/16 03:47:50;;;;;;;0.30;0.30;;;-3.10;99.90;;;;;;5029689;28;21028;-70
2023/03/16 03:50:17;;;;;;;4.30;1.48;;;-3.20;99.90;;;;;;5030446;28;20431;-70
2023/03/16 03:52:44;;;;;;;0.90;0.90;;;-3.20;1.00;;;;;;5030840;28;20430;-70
2023/03/16 03:55:11;;;;;;;0.82;0.63;;;-3.00;1.00;;;;;;5029144;28;20497;-70
2023/03/16 03:57:38;;;;;;;2.30;1.10;;;-2.90;1.00;;;;;;5030871;28;20445;-70
2023/03/16 04:00:10;;;;;;;2.60;0.85;;;-2.90;1.00;;;;;;5029674;28;20469;-69
2023/03/16 04:02:38;;;;;;;1.30;0.68;;;-2.90;1.00;;;;;;5029490;28;20439;-69
2023/03/16 04:05:08;;;;;;;1.08;0.77;;;-2.90;1.00;;;;;;5029771;28;20950;-69
2023/03/16 04:07:34;;;;;;;0.50;0.50;;;-3.00;1.00;;;;;;5031068;28;20423;-69
2023/03/16 04:10:01;;;;;;;0.65;0.65;;;-2.90;1.00;;;;;;5031290;28;20423;-69
2023/03/16 04:12:30;;;;;;;1.63;0.65;;;-2.90;1.00;;;;;;5030842;28;20431;-69
2023/03/16 04:14:57;;;;;;;0.25;0.25;;;-2.90;1.00;;;;;;5030513;28;20431;-69
2023/03/16 04:17:24;;;;;;;1.10;1.05;;;-2.90;1.00;;;;;;5030840;28;20434;-69
2023/03/16 04:19:50;;;;;;;0.65;0.65;;;-3.00;1.00;;;;;;5029222;28;20433;-70
2023/03/16 04:22:17;;;;;;;2.50;0.50;;;-3.00;1.00;;;;;;5030918;28;20474;-69
2023/03/16 04:24:44;;;;;;;0.77;0.77;;;-3.10;1.00;;;;;;5028315;28;20467;-70
2023/03/16 04:27:11;;;;;;;2.20;0.90;;;-3.10;1.00;;;;;;5030852;28;20517;-69
2023/03/16 04:29:38;;;;;;;0.80;0.80;;;-3.10;1.00;;;;;;5030283;28;20431;-70
2023/03/16 04:32:08;;;;;;;0.30;0.30;;;-3.10;1.00;;;;;;5030567;28;20526;-70
2023/03/16 04:34:34;;;;;;;1.00;1.00;;;-3.20;1.00;;;;;;5029892;28;20827;-70
2023/03/16 04:37:04;;;;;;;0.77;0.77;;;-3.20;1.00;;;;;;5028826;28;20431;-70
2023/03/16 04:39:31;;;;;;;0.30;0.30;;;-3.30;1.00;;;;;;5028937;28;20430;-70
2023/03/16 04:41:58;;;;;;;0.55;0.55;;;-3.30;40.10;;;;;;5030324;28;21004;-70
2023/03/16 04:44:25;;;;;;;0.50;0.35;;;-3.30;99.90;;;;;;5027956;28;20469;-70
2023/03/16 04:46:52;;;;;;;0.30;0.30;;;-3.20;99.90;;;;;;5030476;28;20439;-70
2023/03/16 04:49:18;;;;;;;0.60;0.60;;;-3.20;99.90;;;;;;5030362;28;20522;-70
2023/03/16 04:51:45;;;;;;;0.50;0.50;;;-3.20;99.90;;;;;;5028737;28;20517;-70
2023/03/16 04:54:12;;;;;;;0.50;0.47;;;-3.20;99.90;;;;;;5030069;28;20493;-70
2023/03/16 04:56:40;;;;;;;0.75;0.75;;;-3.20;99.90;;;;;;5028070;28;20446;-70
2023/03/16 04:59:09;;;;;;;0.60;0.40;;;-3.20;99.90;;;;;;5030107;28;20936;-70
2023/03/16 05:01:37;;;;;;;0.88;0.88;;;-3.20;99.90;;;;;;5028169;28;20438;-70
2023/03/16 05:04:04;;;;;;;0.60;0.60;;;-3.20;99.90;;;;;;5027701;28;20431;-70
2023/03/16 05:06:31;;;;;;;1.10;1.10;;;-3.10;99.90;;;;;;5029903;28;20427;-70
2023/03/16 05:08:59;;;;;;;1.30;1.20;;;-3.00;99.90;;;;;;5029027;28;20526;-70
2023/03/16 05:11:26;;;;;;;0.50;0.50;;;-2.90;99.90;;;;;;5029342;28;20905;-70
2023/03/16 05:13:53;;;;;;;0.90;0.90;;;-2.90;99.90;;;;;;5029604;28;20422;-70
2023/03/16 05:16:20;;;;;;;0.60;0.60;;;-2.80;99.90;;;;;;5030039;28;20523;-70
2023/03/16 05:18:46;;;;;;;0.73;0.73;;;-2.70;99.90;;;;;;5029800;28;20434;-70
2023/03/16 05:21:13;;;;;;;0.73;0.73;;;-2.70;99.90;;;;;;5030268;28;20431;-70
2023/03/16 05:23:43;;;;;;;1.70;0.60;;;-2.70;99.90;;;;;;5029642;28;20435;-70
2023/03/16 05:26:12;;;;;;;1.07;0.97;;;-2.60;99.90;;;;;;5027673;28;20453;-70
2023/03/16 05:28:39;;;;;;;1.40;1.17;;;-2.70;99.90;;;;;;5029655;28;20435;-70
2023/03/16 05:31:05;;;;;;;1.05;1.05;;;-2.60;99.90;;;;;;5029500;28;20521;-70
2023/03/16 05:33:32;;;;;;;0.80;0.80;;;-2.60;99.90;;;;;;5029719;28;20431;-70
2023/03/16 05:36:03;;;;;;;1.30;0.90;;;-2.60;1.00;;;;;;5027901;28;20893;-71
2023/03/16 05:38:30;;;;;;;0.82;0.82;;;-2.50;1.00;;;;;;5028024;28;20939;-70
2023/03/16 05:41:00;;;;;;;0.80;0.77;;;-2.50;1.00;;;;;;5027981;28;20466;-71
2023/03/16 05:43:30;;;;;;;0.70;0.70;;;-2.40;1.00;;;;;;5029616;28;20431;-70
2023/03/16 05:46:00;;;;;;;1.30;0.70;;;-2.40;1.00;;;;;;5031562;28;20461;-70
2023/03/16 05:48:30;;;;;;;0.80;0.80;;;-2.40;1.00;;;;;;5033455;28;20431;-70
2023/03/16 05:50:57;;;;;;;0.80;0.80;;;-2.40;1.00;;;;;;5033275;28;20442;-71
2023/03/16 05:53:27;;;;;;;0.82;0.50;;;-2.40;1.00;;;;;;5033710;28;20434;-70
2023/03/16 05:55:56;;;;;;;0.75;0.75;;;-2.30;1.00;;;;;;5031508;28;20435;-71
2023/03/16 05:58:23;;;;;;;5.60;1.10;;;-2.20;1.00;;;;;;5033558;28;20516;-71
2023/03/16 06:00:54;;;;;;;0.60;0.60;;;-2.20;1.00;;;;;;5033299;28;20442;-70
2023/03/16 06:03:21;;;;;;;0.60;0.60;;;-2.10;1.00;;;;;;5030866;28;20470;-71
2023/03/16 06:05:48;;;;;;;0.75;0.65;;;-2.00;1.00;;;;;;5032323;28;20433;-70
2023/03/16 06:08:15;;;;;;;0.63;0.63;;;-1.80;1.00;;;;;;5033111;28;20492;-71
2023/03/16 06:10:42;;;;;;;0.93;0.93;;;-1.70;1.00;;;;;;5033055;28;21207;-71
2023/03/16 06:13:08;;;;;;;4.10;1.15;;;-1.60;1.00;;;;;;5031665;28;21152;-71
2023/03/16 06:15:35;;;;;;;0.93;0.93;;;-1.50;1.00;;;;;;5032747;28;20445;-71
2023/03/16 06:18:02;;;;;;;1.20;1.05;;;-1.40;1.00;;;;;;5030908;28;20858;-70
2023/03/16 06:20:28;;;;;;;1.42;0.95;;;-1.30;1.00;;;;;;5032719;28;20437;-71
2023/03/16 06:22:56;;;;;;;1.10;1.10;;;-1.20;1.00;;;;;;5032680;28;20453;-72
2023/03/16 06:25:25;;;;;;;0.82;0.82;;;-1.10;1.00;;;;;;5032685;28;20466;-71
2023/03/16 06:27:52;;;;;;;2.15;1.20;;;-1.00;1.00;;;;;;5030260;28;20434;-71
2023/03/16 06:30:19;;;;;;;0.88;0.88;;;-0.90;1.00;;;;;;5032799;28;20437;-71
2023/03/16 06:32:45;;;;;;;1.15;1.02;;;-0.70;1.00;;;;;;5029916;28;20465;-71
2023/03/16 06:35:13;;;;;;;1.00;1.00;;;-0.50;1.00;;;;;;5030515;28;20442;-70
2023/03/16 06:37:40;;;;;;;0.82;0.82;;;0.00;1.00;;;;;;5032813;28;20439;-70
2023/03/16 06:40:08;;;;;;;1.77;1.30;;;0.50;1.00;;;;;;5030220;28;20462;-70
2023/03/16 06:42:35;;;;;;;0.93;0.93;;;1.00;1.00;;;;;;5032451;28;20431;-70
2023/03/16 06:45:02;;;;;;;0.98;0.98;;;1.40;99.90;;;;;;5029981;28;20439;-70
2023/03/16 06:47:29;;;;;;;1.80;1.02;;;1.70;99.90;;;;;;5032377;28;20441;-70
2023/03/16 06:49:56;;;;;;;0.68;0.63;;;1.80;99.90;;;;;;5031098;28;20890;-70
2023/03/16 06:52:23;;;;;;;1.58;1.13;;;1.80;72.20;;;;;;5032531;28;20457;-70
2023/03/16 06:54:50;;;;;;;1.42;1.33;;;2.00;1.00;;;;;;5030743;28;20431;-70
2023/03/16 06:57:17;;;;;;;1.17;1.00;;;2.60;99.90;;;;;;5030133;28;21089;-70
2023/03/16 06:59:44;;;;;;;1.20;1.10;;;3.10;99.90;;;;;;5030878;28;20441;-70
2023/03/16 07:02:14;;;;;;;1.25;1.08;;;3.40;99.90;;;;;;5032380;28;20480;-70
2023/03/16 07:04:40;;;;;;;1.17;1.17;;;3.70;99.90;;;;;;5030429;28;20426;-70
2023/03/16 07:07:08;;;;;;;1.67;1.40;;;3.80;99.90;;;;;;5032280;28;20843;-70
2023/03/16 07:09:35;;;;;;;1.20;1.10;;;3.80;99.90;;;;;;5031915;28;20437;-69
2023/03/16 07:12:06;;;;;;;0.95;0.95;;;4.20;99.90;;;;;;5031919;28;20480;-69
2023/03/16 07:14:32;;;;;;;1.38;1.20;;;4.20;99.90;;;;;;5031138;28;20533;-69
2023/03/16 07:17:00;;;;;;;1.52;1.27;;;4.10;99.90;;;;;;5019840;28;20424;-70
2023/03/16 07:19:27;;;;;;;1.08;0.82;;;4.10;99.90;;;;;;5011870;28;20443;-69
2023/03/16 07:21:55;;;;;;;1.40;1.20;;;3.90;99.90;;;;;;5012752;28;20478;-69
2023/03/16 07:24:22;;;;;;;1.13;1.05;;;3.90;99.90;;;;;;5031098;28;20535;-69
2023/03/16 07:26:49;;;;;;;1.23;1.23;;;3.90;99.90;;;;;;5031286;28;20466;-69
2023/03/16 07:29:16;;;;;;;1.70;1.30;;;4.10;99.90;;;;;;5031693;28;20434;-69
2023/03/16 07:31:43;;;;;;;1.27;1.08;;;4.40;99.90;;;;;;5029977;28;20913;-70
2023/03/16 07:34:10;;;;;;;1.65;1.17;;;4.60;99.90;;;;;;5030881;28;20435;-69
2023/03/16 07:36:37;;;;;;;1.27;1.20;;;4.50;99.90;;;;;;5029333;28;20466;-69
2023/03/16 07:39:05;;;;;;;1.00;1.00;;;4.40;99.90;;;;;;5030552;28;20439;-69
2023/03/16 07:41:34;;;;;;;0.70;0.60;;;4.40;99.90;;;;;;5031025;28;20442;-69
2023/03/16 07:44:01;;;;;;;0.63;0.63;;;4.40;99.90;;;;;;5028456;28;20779;-69
2023/03/16 07:46:31;;;;;;;1.10;0.75;;;4.50;99.90;;;;;;5031028;28;20430;-69
2023/03/16 07:49:00;;;;;;;1.27;0.65;;;4.80;99.90;;;;;;5030868;28;20522;-69
2023/03/16 07:51:27;;;;;;;0.85;0.85;;;5.10;99.90;;;;;;5027678;28;20858;-69
2023/03/16 07:53:56;;;;;;;1.05;0.70;;;5.30;99.90;;;;;;5029151;28;20525;-69
2023/03/16 07:56:23;;;;;;;1.55;1.45;;;5.90;99.90;;;;;;5031071;28;20457;-69
2023/03/16 07:58:57;;;;;;;1.60;1.30;;;6.60;99.90;;;;;;5030912;28;20427;-69
2023/03/16 08:01:23;;;;;;;1.53;1.07;;;6.90;99.90;;;;;;5030962;28;20434;-69
2023/03/16 08:03:50;;;;;;;1.25;1.25;;;7.00;99.90;;;;;;5027644;28;20448;-69
2023/03/16 08:06:17;;;;;;;1.20;0.70;;;7.10;99.90;;;;;;5016909;28;20507;-71
2023/03/16 08:08:44;;;;;;;1.40;1.10;;;7.30;99.90;;;;;;5022435;28;20430;-69
2023/03/16 08:11:10;;;;;;;1.00;1.00;;;7.50;99.90;;;;;;5030918;28;20423;-69
2023/03/16 08:13:37;;;;;;;0.90;0.90;;;7.50;99.90;;;;;;5030898;28;20445;-69
2023/03/16 08:16:09;;;;;;;1.23;1.13;;;7.60;99.90;;;;;;5030548;28;20434;-69
2023/03/16 08:18:36;;;;;;;1.02;1.02;;;7.80;99.90;;;;;;5030725;28;20431;-69
2023/03/16 08:21:03;;;;;;;1.60;1.30;;;8.00;99.90;;;;;;5028254;28;20861;-68
2023/03/16 08:23:32;;;;;;;1.55;1.45;;;8.00;99.90;;;;;;5030594;28;20538;-69
2023/03/16 08:26:00;;;;;;;0.88;0.88;;;8.00;99.90;;;;;;5030122;28;20446;-69
2023/03/16 08:28:26;;;;;;;2.50;1.20;;;7.80;99.90;;;;;;5029055;28;20481;-69
2023/03/16 08:30:54;;;;;;;1.35;1.23;;;7.90;99.90;;;;;;5030528;28;20466;-69
2023/03/16 08:33:21;;;;;;;1.27;1.15;;;8.10;99.90;;;;;;5029137;28;20519;-68
2023/03/16 08:35:49;;;;;;;1.10;1.08;;;8.20;99.90;;;;;;5025956;28;20445;-69
2023/03/16 08:38:19;;;;;;;0.90;0.90;;;8.50;99.90;;;;;;5029789;28;20439;-67
2023/03/16 08:40:47;;;;;;;0.82;0.82;;;8.70;99.90;;;;;;5030497;28;20496;-68
2023/03/16 08:43:17;;;;;;;1.25;1.05;;;8.60;99.90;;;;;;5030238;28;20458;-68
2023/03/16 08:45:45;;;;;;;1.13;0.82;;;8.90;99.90;;;;;;5029940;28;20427;-68
2023/03/16 08:48:14;;;;;;;1.52;1.40;;;9.10;99.90;;;;;;5030191;28;20939;-68
2023/03/16 08:50:42;;;;;;;0.93;0.90;;;9.30;99.90;;;;;;5029905;28;20423;-67
2023/03/16 08:53:13;;;;;;;2.00;1.05;;;9.40;99.90;;;;;;5028276;28;20529;-68
2023/03/16 08:55:40;;;;;;;1.38;1.27;;;9.90;99.90;;;;;;5029999;28;20438;-67
2023/03/16 08:58:08;;;;;;;3.40;1.00;;;10.30;99.90;;;;;;5029783;28;20441;-67
2023/03/16 09:00:36;;;;;;;1.15;1.10;;;10.60;99.90;;;;;;5029486;28;20477;-67
2023/03/16 09:03:03;;;;;;;2.10;1.10;;;10.80;99.90;;;;;;5029923;28;20434;-67
2023/03/16 09:05:31;;;;;;;1.10;1.05;;;11.00;99.90;;;;;;5029058;28;20517;-67
2023/03/16 09:08:02;;;;;;;1.50;1.00;;;10.80;99.90;;;;;;5028228;28;20462;-67
2023/03/16 09:10:31;;;;;;;1.60;1.02;;;10.90;99.90;;;;;;5029415;28;20910;-67
2023/03/16 09:12:57;;;;;;;1.02;1.00;;;10.70;99.90;;;;;;5029828;28;20453;-67
2023/03/16 09:15:24;;;;;;;0.82;0.82;;;10.70;99.90;;;;;;5026928;28;20434;-67
2023/03/16 09:17:53;;;;;;;2.60;0.98;;;10.90;99.90;;;;;;5029566;28;20607;-67
2023/03/16 09:20:20;;;;;;;3.22;1.20;;;10.90;99.90;;;;;;5028632;28;20430;-67
2023/03/16 09:23:00;;;;;;;0.80;0.80;;;11.10;99.90;;;;;;5028713;28;20650;-66
2023/03/16 09:25:27;;;;;;;1.27;1.20;;;11.40;99.90;;;;;;5026720;28;20434;-66
2023/03/16 09:27:54;;;;;;;0.93;0.93;;;11.70;99.90;;;;;;5029580;28;20462;-66
2023/03/16 09:30:21;;;;;;;1.90;1.10;;;11.90;99.90;;;;;;5027841;28;20510;-66
2023/03/16 09:32:50;;;;;;;2.10;1.30;;;11.60;99.90;;;;;;5029265;28;21170;-67
2023/03/16 09:35:18;;;;;;;0.90;0.90;;;11.60;99.90;;;;;;5028825;28;20430;-67
2023/03/16 09:37:45;;;;;;;0.63;0.63;;;11.60;99.90;;;;;;5028448;28;20466;-67
2023/03/16 09:40:32;;;;;;;2.40;1.35;;;11.70;99.90;;;;;;5026552;28;20546;-66
2023/03/16 09:43:20;;;;;;;0.90;0.90;;;11.80;99.90;;;;;;5028331;28;20435;-66
2023/03/16 09:46:24;;;;;;;0.80;0.80;;;11.70;99.90;;;;;;5025647;28;20508;-66
2023/03/16 09:48:56;;;;;;;1.60;0.75;;;11.90;99.90;;;;;;5027720;28;20492;-67
2023/03/16 09:51:41;;;;;;;1.15;1.15;;;11.50;99.90;;;;;;5025452;28;20512;-68
2023/03/16 09:54:42;;;;;;;1.13;1.02;;;11.10;99.90;;;;;;5027447;28;20931;-66
2023/03/16 09:57:30;;;;;;;0.77;0.77;;;11.30;99.90;;;;;;5009048;28;20425;-66
2023/03/16 10:00:18;;;;;;;0.95;0.95;;;11.10;99.90;;;;;;5027116;28;20790;-67
2023/03/16 10:03:23;;;;;;;1.52;1.23;;;10.80;99.90;;;;;;5028429;28;20426;-67
2023/03/16 10:05:57;;;;;;;1.27;0.93;;;10.80;99.90;;;;;;5028048;28;20435;-67
2023/03/16 10:08:30;;;;;;;0.93;0.93;;;11.00;99.90;;;;;;5028583;28;20427;-67
2023/03/16 10:11:40;;;;;;;0.98;0.98;;;11.30;99.90;;;;;;5026374;28;20455;-67
2023/03/16 10:14:40;;;;;;;1.23;1.20;;;11.80;99.90;;;;;;5026741;28;20520;-67
2023/03/16 10:17:18;;;;;;;1.33;1.33;;;12.40;99.90;;;;;;5026268;28;20568;-67
2023/03/16 10:20:07;;;;;;;1.40;1.05;;;12.90;99.90;;;;;;5028208;28;20465;-67
2023/03/16 10:22:38;;;;;;;1.10;1.10;;;13.30;99.90;;;;;;5026970;28;20458;-67
2023/03/16 10:25:38;;;;;;;0.90;0.90;;;13.30;99.90;;;;;;5026045;28;20477;-67
2023/03/16 10:28:05;;;;;;;1.50;1.40;;;13.10;99.90;;;;;;5026990;28;20430;-67
2023/03/16 10:30:35;;;;;;;1.20;1.10;;;13.00;99.90;;;;;;5026260;28;20430;-67
2023/03/16 10:33:12;;;;;;;1.38;1.25;;;12.20;99.90;;;;;;5032009;28;20445;-67
2023/03/16 10:35:45;;;;;;;0.93;0.80;;;11.40;99.90;;;;;;5031580;28;20529;-67
2023/03/16 10:38:27;;;;;;;1.23;1.00;;;12.10;99.90;;;;;;5031534;28;20969;-67
2023/03/16 10:40:58;;;;;;;1.38;1.27;;;12.50;99.90;;;;;;5032045;28;20441;-67
2023/03/16 10:43:25;;;;;;;0.70;0.70;;;13.10;99.90;;;;;;5031918;28;20443;-67
2023/03/16 10:45:59;;;;;;;1.42;1.10;;;13.70;99.90;;;;;;5028604;28;20431;-67
2023/03/16 10:48:33;;;;;;;1.77;1.27;;;13.40;99.90;;;;;;5031949;28;20433;-67
2023/03/16 10:51:06;;;;;;;2.60;1.15;;;13.70;99.90;;;;;;5030835;28;20431;-67
2023/03/16 10:53:37;;;;;;;0.98;0.98;;;14.30;99.90;;;;;;5032116;28;20894;-67
2023/03/16 10:56:24;;;;;;;1.50;1.17;;;14.80;99.90;;;;;;5032040;28;20435;-67
2023/03/16 10:58:51;;;;;;;2.85;0.90;;;14.60;99.90;;;;;;5032222;28;20932;-67
2023/03/16 11:01:22;;;;;;;1.50;1.40;;;14.10;99.90;;;;;;5030104;28;20439;-67
2023/03/16 11:04:14;;;;;;;1.13;0.95;;;14.30;99.90;;;;;;5030540;28;20435;-67
2023/03/16 11:06:50;;;;;;;1.13;1.13;;;14.50;99.90;;;;;;5032122;28;20423;-67
2023/03/16 11:09:32;;;;;;;0.88;0.88;;;13.80;99.90;;;;;;5032173;28;20487;-67
2023/03/16 11:12:11;;;;;;;1.52;1.15;;;13.90;99.90;;;;;;5029089;28;20437;-67
2023/03/16 11:14:43;;;;;;;1.10;1.10;;;13.80;99.90;;;;;;5031602;28;20905;-67
2023/03/16 11:17:16;;;;;;;1.27;0.93;;;13.60;99.90;;;;;;5031810;28;20437;-67
2023/03/16 11:19:59;;;;;;;1.20;1.00;;;13.60;99.90;;;;;;5030021;28;20466;-67
2023/03/16 11:22:26;;;;;;;1.17;1.10;;;13.70;99.90;;;;;;5031755;28;20929;-67
2023/03/16 11:25:03;;;;;;;0.90;0.90;;;13.70;99.90;;;;;;5031466;28;20485;-67
2023/03/16 11:27:39;;;;;;;0.65;0.65;;;13.50;99.90;;;;;;5031969;28;20509;-67
2023/03/16 11:30:20;;;;;;;0.90;0.90;;;13.40;99.90;;;;;;5031623;28;20514;-67
2023/03/16 11:32:52;;;;;;;1.00;1.00;;;13.20;99.90;;;;;;5029121;28;20517;-67
2023/03/16 11:35:20;;;;;;;1.85;0.98;;;13.50;99.90;;;;;;5031419;28;20649;-67
2023/03/16 11:38:14;;;;;;;0.73;0.73;;;13.80;99.90;;;;;;5031361;28;21180;-67
2023/03/16 11:41:01;;;;;;;0.82;0.82;;;13.60;99.90;;;;;;5028055;28;20441;-67
2023/03/16 11:43:46;;;;;;;0.95;0.85;;;13.00;99.90;;;;;;5028344;28;20435;-66
2023/03/16 11:46:35;;;;;;;0.60;0.60;;;12.30;99.90;;;;;;5028718;28;20430;-67
2023/03/16 11:49:23;;;;;;;1.15;1.08;;;11.50;99.90;;;;;;5026839;28;20438;-67
2023/03/16 11:52:01;;;;;;;1.10;1.00;;;11.80;99.90;;;;;;5028359;28;20427;-67
2023/03/16 11:54:40;;;;;;;0.80;0.80;;;11.80;99.90;;;;;;5027949;28;20434;-67
2023/03/16 11:57:36;;;;;;;0.70;0.70;;;12.00;99.90;;;;;;5026987;28;20458;-67
2023/03/16 12:00:23;;;;;;;2.43;0.93;;;12.30;99.90;;;;;;5028413;28;20442;-67
2023/03/16 12:03:08;;;;;;;0.68;0.68;;;12.80;99.90;;;;;;5028690;28;20439;-67
2023/03/16 12:05:47;;;;;;;8.40;1.33;;;13.30;99.90;;;;;;5026218;28;20514;-68
2023/03/16 12:08:35;;;;;;;1.27;1.20;;;13.50;99.90;;;;;;5028172;28;20941;-67
2023/03/16 12:11:19;;;;;;;1.10;1.00;;;13.60;99.90;;;;;;5028242;28;20458;-68
2023/03/16 12:14:23;;;;;;;1.00;0.80;;;13.70;99.90;;;;;;5026082;28;20434;-67
2023/03/16 12:17:03;;;;;;;0.88;0.88;;;13.40;99.90;;;;;;4992554;28;20937;-68
2023/03/16 12:19:45;;;;;;;0.50;0.50;;;13.50;99.90;;;;;;5030089;28;20439;-67
2023/03/16 12:22:26;;;;;;;1.00;0.90;;;13.10;99.90;;;;;;5030052;28;20435;-67
2023/03/16 12:24:55;;;;;;;0.75;0.75;;;13.30;99.90;;;;;;5029316;28;20493;-67
2023/03/16 12:27:35;;;;;;;0.73;0.73;;;12.90;99.90;;;;;;5029836;28;20427;-67
2023/03/16 12:30:12;;;;;;;0.90;0.90;;;12.60;99.90;;;;;;5030110;28;20511;-67
2023/03/16 12:32:56;;;;;;;0.90;0.70;;;12.30;99.90;;;;;;5030018;28;20933;-68
2023/03/16 12:35:53;;;;;;;0.50;0.50;;;12.10;99.90;;;;;;5029213;28;20430;-68
2023/03/16 12:38:47;;;;;;;1.00;0.73;;;12.80;99.90;;;;;;5029634;28;20437;-68
2023/03/16 12:41:20;;;;;;;0.60;0.60;;;13.60;99.90;;;;;;5029301;28;20553;-67
2023/03/16 12:43:59;;;;;;;0.63;0.63;;;14.10;99.90;;;;;;5027449;28;20439;-67
2023/03/16 12:46:29;;;;;;;0.77;0.77;;;13.60;99.90;;;;;;5029509;28;20433;-67
2023/03/16 12:49:00;;;;;;;0.98;0.80;;;13.80;99.90;;;;;;5027367;28;20510;-68
2023/03/16 12:51:41;;;;;;;3.83;0.70;;;14.10;99.90;;;;;;5009474;28;20460;-68
2023/03/16 12:54:24;;;;;;;1.05;0.98;;;14.40;99.90;;;;;;5008611;28;20447;-67
2023/03/16 12:56:58;;;;;;;0.70;0.70;;;14.40;99.90;;;;;;5024066;28;20427;-67
2023/03/16 12:59:35;;;;;;;0.50;0.50;;;13.80;99.90;;;;;;5029275;28;20453;-67
2023/03/16 13:02:02;;;;;;;0.93;0.57;;;;;;;;;;5027477;28;20438;-68
2023/03/16 13:04:38;;;;;;;0.70;0.60;;;13.40;99.90;;;;;;5028703;28;20431;-68
2023/03/16 13:07:08;;;;;;;0.43;0.43;;;13.70;99.90;;;;;;5029414;28;21000;-68
2023/03/16 13:09:47;;;;;;;0.50;0.50;;;13.60;99.90;;;;;;5027902;28;20940;-67
2023/03/16 13:12:27;;;;;;;0.40;0.40;;;13.50;99.90;;;;;;5029193;28;20445;-68
2023/03/16 13:14:54;;;;;;;0.40;0.40;;;13.80;99.90;;;;;;5028755;28;20452;-68